sensor_id;sensor_type;location;lat;lon;timestamp;P1;durP1;ratioP1;P2;durP2;ratioP2
71715;SDS011;59568;52.128;5.434;2022-08-25T00:01:45;5.90;;;3.47;;
71715;SDS011;59568;52.128;5.434;2022-08-25T00:04:15;4.75;;;3.55;;
71715;SDS011;59568;52.128;5.434;2022-08-25T00:06:43;4.40;;;3.73;;
71715;SDS011;59568;52.128;5.434;2022-08-25T00:09:12;4.40;;;3.63;;
71715;SDS011;59568;52.128;5.434;2022-08-25T00:11:42;7.70;;;3.97;;
71715;SDS011;59568;52.128;5.434;2022-08-25T00:14:12;8.35;;;3.90;;
71715;SDS011;59568;52.128;5.434;2022-08-25T00:16:40;4.88;;;3.95;;
71715;SDS011;59568;52.128;5.434;2022-08-25T00:19:10;5.60;;;3.90;;
71715;SDS011;59568;52.128;5.434;2022-08-25T00:21:40;3.78;;;3.35;;
71715;SDS011;59568;52.128;5.434;2022-08-25T00:24:08;4.60;;;4.05;;
71715;SDS011;59568;52.128;5.434;2022-08-25T00:26:37;4.60;;;3.63;;
71715;SDS011;59568;52.128;5.434;2022-08-25T00:29:06;4.50;;;3.60;;
71715;SDS011;59568;52.128;5.434;2022-08-25T00:31:34;5.85;;;4.32;;
71715;SDS011;59568;52.128;5.434;2022-08-25T00:34:05;4.90;;;3.88;;
71715;SDS011;59568;52.128;5.434;2022-08-25T00:36:37;4.80;;;4.18;;
71715;SDS011;59568;52.128;5.434;2022-08-25T00:39:05;4.82;;;4.15;;
71715;SDS011;59568;52.128;5.434;2022-08-25T00:41:34;5.13;;;3.90;;
71715;SDS011;59568;52.128;5.434;2022-08-25T00:44:03;5.60;;;4.00;;
71715;SDS011;59568;52.128;5.434;2022-08-25T00:46:33;5.03;;;4.30;;
71715;SDS011;59568;52.128;5.434;2022-08-25T00:49:10;5.47;;;3.63;;
71715;SDS011;59568;52.128;5.434;2022-08-25T00:51:53;4.80;;;3.42;;
71715;SDS011;59568;52.128;5.434;2022-08-25T00:54:35;4.68;;;3.80;;
71715;SDS011;59568;52.128;5.434;2022-08-25T00:57:06;5.47;;;3.87;;
71715;SDS011;59568;52.128;5.434;2022-08-25T00:59:35;5.78;;;4.38;;
71715;SDS011;59568;52.128;5.434;2022-08-25T01:02:02;4.57;;;3.80;;
71715;SDS011;59568;52.128;5.434;2022-08-25T01:04:35;5.03;;;4.25;;
71715;SDS011;59568;52.128;5.434;2022-08-25T01:07:03;5.60;;;4.55;;
71715;SDS011;59568;52.128;5.434;2022-08-25T01:09:30;4.40;;;3.78;;
71715;SDS011;59568;52.128;5.434;2022-08-25T01:11:58;5.25;;;4.20;;
71715;SDS011;59568;52.128;5.434;2022-08-25T01:14:26;4.70;;;3.80;;
71715;SDS011;59568;52.128;5.434;2022-08-25T01:16:56;6.38;;;4.35;;
71715;SDS011;59568;52.128;5.434;2022-08-25T01:19:24;6.00;;;4.53;;
71715;SDS011;59568;52.128;5.434;2022-08-25T01:21:53;6.13;;;4.60;;
71715;SDS011;59568;52.128;5.434;2022-08-25T01:24:40;4.25;;;3.85;;
71715;SDS011;59568;52.128;5.434;2022-08-25T01:27:27;5.03;;;4.05;;
71715;SDS011;59568;52.128;5.434;2022-08-25T01:29:54;7.47;;;5.00;;
71715;SDS011;59568;52.128;5.434;2022-08-25T01:32:21;6.00;;;4.32;;
71715;SDS011;59568;52.128;5.434;2022-08-25T01:34:47;5.32;;;4.25;;
71715;SDS011;59568;52.128;5.434;2022-08-25T01:37:17;5.68;;;3.72;;
71715;SDS011;59568;52.128;5.434;2022-08-25T01:39:44;5.72;;;4.15;;
71715;SDS011;59568;52.128;5.434;2022-08-25T01:44:41;4.25;;;3.85;;
71715;SDS011;59568;52.128;5.434;2022-08-25T01:47:09;5.37;;;4.37;;
71715;SDS011;59568;52.128;5.434;2022-08-25T01:49:36;5.15;;;3.88;;
71715;SDS011;59568;52.128;5.434;2022-08-25T01:52:09;4.38;;;3.97;;
71715;SDS011;59568;52.128;5.434;2022-08-25T01:54:39;5.05;;;4.28;;
71715;SDS011;59568;52.128;5.434;2022-08-25T01:57:07;5.72;;;3.95;;
71715;SDS011;59568;52.128;5.434;2022-08-25T01:59:34;6.40;;;3.80;;
71715;SDS011;59568;52.128;5.434;2022-08-25T02:02:01;6.60;;;4.38;;
71715;SDS011;59568;52.128;5.434;2022-08-25T02:04:30;4.57;;;4.05;;
71715;SDS011;59568;52.128;5.434;2022-08-25T02:06:58;7.55;;;4.90;;
71715;SDS011;59568;52.128;5.434;2022-08-25T02:09:27;5.78;;;4.20;;
71715;SDS011;59568;52.128;5.434;2022-08-25T02:11:53;5.23;;;4.70;;
71715;SDS011;59568;52.128;5.434;2022-08-25T02:14:22;6.65;;;4.70;;
71715;SDS011;59568;52.128;5.434;2022-08-25T02:16:49;6.03;;;4.88;;
71715;SDS011;59568;52.128;5.434;2022-08-25T02:19:18;5.78;;;4.13;;
71715;SDS011;59568;52.128;5.434;2022-08-25T02:21:46;6.22;;;4.97;;
71715;SDS011;59568;52.128;5.434;2022-08-25T02:24:12;8.00;;;5.40;;
71715;SDS011;59568;52.128;5.434;2022-08-25T02:26:40;6.00;;;5.20;;
71715;SDS011;59568;52.128;5.434;2022-08-25T02:29:07;7.43;;;5.53;;
71715;SDS011;59568;52.128;5.434;2022-08-25T02:31:35;5.75;;;4.63;;
71715;SDS011;59568;52.128;5.434;2022-08-25T02:34:02;5.70;;;5.10;;
71715;SDS011;59568;52.128;5.434;2022-08-25T02:36:30;7.13;;;5.25;;
71715;SDS011;59568;52.128;5.434;2022-08-25T02:38:57;5.07;;;4.57;;
71715;SDS011;59568;52.128;5.434;2022-08-25T02:41:25;6.30;;;3.95;;
71715;SDS011;59568;52.128;5.434;2022-08-25T02:43:57;5.10;;;4.47;;
71715;SDS011;59568;52.128;5.434;2022-08-25T02:46:24;5.90;;;4.25;;
71715;SDS011;59568;52.128;5.434;2022-08-25T02:48:51;9.17;;;6.60;;
71715;SDS011;59568;52.128;5.434;2022-08-25T02:51:19;6.75;;;5.95;;
71715;SDS011;59568;52.128;5.434;2022-08-25T02:53:47;5.80;;;4.57;;
71715;SDS011;59568;52.128;5.434;2022-08-25T02:56:15;7.43;;;5.10;;
71715;SDS011;59568;52.128;5.434;2022-08-25T02:58:43;6.20;;;4.53;;
71715;SDS011;59568;52.128;5.434;2022-08-25T03:01:12;8.18;;;5.43;;
71715;SDS011;59568;52.128;5.434;2022-08-25T03:03:40;6.95;;;5.97;;
71715;SDS011;59568;52.128;5.434;2022-08-25T03:06:09;6.13;;;5.00;;
71715;SDS011;59568;52.128;5.434;2022-08-25T03:08:38;5.63;;;4.25;;
71715;SDS011;59568;52.128;5.434;2022-08-25T03:11:05;5.78;;;4.95;;
71715;SDS011;59568;52.128;5.434;2022-08-25T03:13:32;7.07;;;5.13;;
71715;SDS011;59568;52.128;5.434;2022-08-25T03:15:59;6.65;;;5.93;;
71715;SDS011;59568;52.128;5.434;2022-08-25T03:18:28;5.57;;;5.05;;
71715;SDS011;59568;52.128;5.434;2022-08-25T03:20:55;5.97;;;4.60;;
71715;SDS011;59568;52.128;5.434;2022-08-25T03:23:22;5.72;;;5.07;;
71715;SDS011;59568;52.128;5.434;2022-08-25T03:25:49;7.10;;;4.63;;
71715;SDS011;59568;52.128;5.434;2022-08-25T03:28:44;6.22;;;4.57;;
71715;SDS011;59568;52.128;5.434;2022-08-25T03:31:11;6.00;;;4.38;;
71715;SDS011;59568;52.128;5.434;2022-08-25T03:33:37;6.47;;;5.10;;
71715;SDS011;59568;52.128;5.434;2022-08-25T03:36:05;7.00;;;4.47;;
71715;SDS011;59568;52.128;5.434;2022-08-25T03:38:34;6.33;;;4.93;;
71715;SDS011;59568;52.128;5.434;2022-08-25T03:41:13;6.57;;;5.00;;
71715;SDS011;59568;52.128;5.434;2022-08-25T03:43:50;5.78;;;4.72;;
71715;SDS011;59568;52.128;5.434;2022-08-25T03:46:22;8.43;;;5.55;;
71715;SDS011;59568;52.128;5.434;2022-08-25T03:48:50;6.40;;;4.15;;
71715;SDS011;59568;52.128;5.434;2022-08-25T03:51:39;5.57;;;4.53;;
71715;SDS011;59568;52.128;5.434;2022-08-25T03:54:08;6.22;;;4.13;;
71715;SDS011;59568;52.128;5.434;2022-08-25T03:56:36;5.55;;;4.60;;
71715;SDS011;59568;52.128;5.434;2022-08-25T03:59:03;7.28;;;4.75;;
71715;SDS011;59568;52.128;5.434;2022-08-25T04:01:31;6.05;;;4.22;;
71715;SDS011;59568;52.128;5.434;2022-08-25T04:03:57;7.00;;;5.17;;
71715;SDS011;59568;52.128;5.434;2022-08-25T04:06:24;6.85;;;4.28;;
71715;SDS011;59568;52.128;5.434;2022-08-25T04:08:50;5.55;;;4.72;;
71715;SDS011;59568;52.128;5.434;2022-08-25T04:11:18;7.07;;;5.25;;
71715;SDS011;59568;52.128;5.434;2022-08-25T04:13:47;5.20;;;4.70;;
71715;SDS011;59568;52.128;5.434;2022-08-25T04:16:15;5.40;;;4.90;;
71715;SDS011;59568;52.128;5.434;2022-08-25T04:18:46;5.20;;;4.47;;
71715;SDS011;59568;52.128;5.434;2022-08-25T04:21:15;6.35;;;4.43;;
71715;SDS011;59568;52.128;5.434;2022-08-25T04:23:43;5.35;;;4.10;;
71715;SDS011;59568;52.128;5.434;2022-08-25T04:26:12;6.03;;;4.80;;
71715;SDS011;59568;52.128;5.434;2022-08-25T04:28:40;5.73;;;5.13;;
71715;SDS011;59568;52.128;5.434;2022-08-25T04:31:07;4.57;;;3.78;;
71715;SDS011;59568;52.128;5.434;2022-08-25T04:33:36;5.10;;;4.32;;
71715;SDS011;59568;52.128;5.434;2022-08-25T04:36:03;6.30;;;4.93;;
71715;SDS011;59568;52.128;5.434;2022-08-25T04:38:37;6.95;;;4.68;;
71715;SDS011;59568;52.128;5.434;2022-08-25T04:41:06;4.57;;;4.03;;
71715;SDS011;59568;52.128;5.434;2022-08-25T04:43:35;5.00;;;4.47;;
71715;SDS011;59568;52.128;5.434;2022-08-25T04:46:04;5.63;;;4.88;;
71715;SDS011;59568;52.128;5.434;2022-08-25T04:48:33;8.07;;;4.05;;
71715;SDS011;59568;52.128;5.434;2022-08-25T04:51:04;9.10;;;4.65;;
71715;SDS011;59568;52.128;5.434;2022-08-25T04:53:32;8.13;;;4.63;;
71715;SDS011;59568;52.128;5.434;2022-08-25T04:55:59;6.45;;;4.20;;
71715;SDS011;59568;52.128;5.434;2022-08-25T04:58:29;5.15;;;3.75;;
71715;SDS011;59568;52.128;5.434;2022-08-25T05:03:56;5.72;;;4.50;;
71715;SDS011;59568;52.128;5.434;2022-08-25T05:06:25;6.13;;;4.40;;
71715;SDS011;59568;52.128;5.434;2022-08-25T05:08:54;4.93;;;4.10;;
71715;SDS011;59568;52.128;5.434;2022-08-25T05:11:22;5.57;;;4.97;;
71715;SDS011;59568;52.128;5.434;2022-08-25T05:13:51;6.55;;;4.68;;
71715;SDS011;59568;52.128;5.434;2022-08-25T05:16:19;4.97;;;4.47;;
71715;SDS011;59568;52.128;5.434;2022-08-25T05:18:48;5.53;;;4.40;;
71715;SDS011;59568;52.128;5.434;2022-08-25T05:21:16;4.82;;;3.97;;
71715;SDS011;59568;52.128;5.434;2022-08-25T05:23:44;5.65;;;4.07;;
71715;SDS011;59568;52.128;5.434;2022-08-25T05:26:13;5.45;;;3.65;;
71715;SDS011;59568;52.128;5.434;2022-08-25T05:28:48;6.28;;;4.60;;
71715;SDS011;59568;52.128;5.434;2022-08-25T05:31:16;9.00;;;4.30;;
71715;SDS011;59568;52.128;5.434;2022-08-25T05:33:44;5.05;;;3.40;;
71715;SDS011;59568;52.128;5.434;2022-08-25T05:36:11;6.50;;;4.10;;
71715;SDS011;59568;52.128;5.434;2022-08-25T05:38:39;4.90;;;3.70;;
71715;SDS011;59568;52.128;5.434;2022-08-25T05:41:07;6.57;;;4.03;;
71715;SDS011;59568;52.128;5.434;2022-08-25T05:43:39;5.53;;;3.97;;
71715;SDS011;59568;52.128;5.434;2022-08-25T05:46:07;7.07;;;3.88;;
71715;SDS011;59568;52.128;5.434;2022-08-25T05:48:34;5.50;;;3.95;;
71715;SDS011;59568;52.128;5.434;2022-08-25T05:51:02;4.60;;;3.53;;
71715;SDS011;59568;52.128;5.434;2022-08-25T05:53:30;5.45;;;3.53;;
71715;SDS011;59568;52.128;5.434;2022-08-25T05:55:59;5.27;;;3.30;;
71715;SDS011;59568;52.128;5.434;2022-08-25T05:58:27;6.35;;;4.35;;
71715;SDS011;59568;52.128;5.434;2022-08-25T06:00:55;5.18;;;3.30;;
71715;SDS011;59568;52.128;5.434;2022-08-25T06:03:23;4.43;;;3.35;;
71715;SDS011;59568;52.128;5.434;2022-08-25T06:05:49;5.35;;;3.45;;
71715;SDS011;59568;52.128;5.434;2022-08-25T06:08:16;4.87;;;3.00;;
71715;SDS011;59568;52.128;5.434;2022-08-25T06:10:42;5.10;;;3.75;;
71715;SDS011;59568;52.128;5.434;2022-08-25T06:13:09;7.57;;;4.72;;
71715;SDS011;59568;52.128;5.434;2022-08-25T06:15:35;7.15;;;4.85;;
71715;SDS011;59568;52.128;5.434;2022-08-25T06:18:02;6.28;;;3.55;;
71715;SDS011;59568;52.128;5.434;2022-08-25T06:20:29;7.75;;;3.58;;
71715;SDS011;59568;52.128;5.434;2022-08-25T06:22:57;6.07;;;3.65;;
71715;SDS011;59568;52.128;5.434;2022-08-25T06:25:24;7.32;;;3.65;;
71715;SDS011;59568;52.128;5.434;2022-08-25T06:27:52;3.38;;;2.90;;
71715;SDS011;59568;52.128;5.434;2022-08-25T06:30:20;8.30;;;3.47;;
71715;SDS011;59568;52.128;5.434;2022-08-25T06:32:54;6.57;;;3.58;;
71715;SDS011;59568;52.128;5.434;2022-08-25T06:35:20;4.70;;;3.00;;
71715;SDS011;59568;52.128;5.434;2022-08-25T06:37:48;6.68;;;4.03;;
71715;SDS011;59568;52.128;5.434;2022-08-25T06:40:15;4.57;;;3.13;;
71715;SDS011;59568;52.128;5.434;2022-08-25T06:42:45;8.80;;;4.00;;
71715;SDS011;59568;52.128;5.434;2022-08-25T06:45:14;6.43;;;4.17;;
71715;SDS011;59568;52.128;5.434;2022-08-25T06:47:41;4.30;;;3.83;;
71715;SDS011;59568;52.128;5.434;2022-08-25T06:50:10;4.75;;;2.90;;
71715;SDS011;59568;52.128;5.434;2022-08-25T06:52:37;5.55;;;3.75;;
71715;SDS011;59568;52.128;5.434;2022-08-25T06:55:03;6.53;;;4.18;;
71715;SDS011;59568;52.128;5.434;2022-08-25T06:57:31;5.60;;;3.47;;
71715;SDS011;59568;52.128;5.434;2022-08-25T07:00:03;7.43;;;4.53;;
71715;SDS011;59568;52.128;5.434;2022-08-25T07:02:32;6.53;;;4.93;;
71715;SDS011;59568;52.128;5.434;2022-08-25T07:05:00;6.68;;;3.05;;
71715;SDS011;59568;52.128;5.434;2022-08-25T07:07:27;6.97;;;3.72;;
71715;SDS011;59568;52.128;5.434;2022-08-25T07:10:09;5.55;;;3.15;;
71715;SDS011;59568;52.128;5.434;2022-08-25T07:12:35;5.45;;;3.33;;
71715;SDS011;59568;52.128;5.434;2022-08-25T07:15:02;4.28;;;3.20;;
71715;SDS011;59568;52.128;5.434;2022-08-25T07:17:45;5.70;;;3.13;;
71715;SDS011;59568;52.128;5.434;2022-08-25T07:20:12;4.88;;;3.20;;
71715;SDS011;59568;52.128;5.434;2022-08-25T07:22:39;5.10;;;2.80;;
71715;SDS011;59568;52.128;5.434;2022-08-25T07:25:06;3.83;;;3.15;;
71715;SDS011;59568;52.128;5.434;2022-08-25T07:27:34;3.58;;;2.20;;
71715;SDS011;59568;52.128;5.434;2022-08-25T07:30:00;4.22;;;2.72;;
71715;SDS011;59568;52.128;5.434;2022-08-25T07:32:29;4.13;;;2.63;;
71715;SDS011;59568;52.128;5.434;2022-08-25T07:34:56;6.35;;;2.25;;
71715;SDS011;59568;52.128;5.434;2022-08-25T07:37:41;4.60;;;2.70;;
71715;SDS011;59568;52.128;5.434;2022-08-25T07:40:17;5.20;;;2.40;;
71715;SDS011;59568;52.128;5.434;2022-08-25T07:42:48;8.02;;;2.20;;
71715;SDS011;59568;52.128;5.434;2022-08-25T07:45:16;5.90;;;2.10;;
71715;SDS011;59568;52.128;5.434;2022-08-25T07:47:46;6.20;;;2.33;;
71715;SDS011;59568;52.128;5.434;2022-08-25T07:50:16;8.13;;;2.50;;
71715;SDS011;59568;52.128;5.434;2022-08-25T07:52:43;3.35;;;2.17;;
71715;SDS011;59568;52.128;5.434;2022-08-25T07:55:17;4.38;;;2.70;;
71715;SDS011;59568;52.128;5.434;2022-08-25T07:57:44;4.85;;;2.80;;
71715;SDS011;59568;52.128;5.434;2022-08-25T08:00:20;5.80;;;2.22;;
71715;SDS011;59568;52.128;5.434;2022-08-25T08:02:49;7.90;;;2.30;;
71715;SDS011;59568;52.128;5.434;2022-08-25T08:05:16;4.22;;;1.90;;
71715;SDS011;59568;52.128;5.434;2022-08-25T08:07:42;7.25;;;2.45;;
71715;SDS011;59568;52.128;5.434;2022-08-25T08:10:10;4.70;;;2.58;;
71715;SDS011;59568;52.128;5.434;2022-08-25T08:12:58;5.10;;;2.40;;
71715;SDS011;59568;52.128;5.434;2022-08-25T08:15:26;5.43;;;2.65;;
71715;SDS011;59568;52.128;5.434;2022-08-25T08:17:55;4.35;;;2.30;;
71715;SDS011;59568;52.128;5.434;2022-08-25T08:20:23;6.40;;;2.95;;
71715;SDS011;59568;52.128;5.434;2022-08-25T08:22:49;4.07;;;2.25;;
71715;SDS011;59568;52.128;5.434;2022-08-25T08:25:16;4.13;;;1.98;;
71715;SDS011;59568;52.128;5.434;2022-08-25T08:27:51;4.93;;;2.30;;
71715;SDS011;59568;52.128;5.434;2022-08-25T08:30:20;5.47;;;2.17;;
71715;SDS011;59568;52.128;5.434;2022-08-25T08:32:51;4.57;;;2.47;;
71715;SDS011;59568;52.128;5.434;2022-08-25T08:35:35;6.15;;;2.00;;
71715;SDS011;59568;52.128;5.434;2022-08-25T08:38:02;4.00;;;2.00;;
71715;SDS011;59568;52.128;5.434;2022-08-25T08:40:44;6.50;;;2.22;;
71715;SDS011;59568;52.128;5.434;2022-08-25T08:43:40;5.07;;;2.42;;
71715;SDS011;59568;52.128;5.434;2022-08-25T08:46:08;4.00;;;1.95;;
71715;SDS011;59568;52.128;5.434;2022-08-25T08:53:55;4.73;;;2.30;;
71715;SDS011;59568;52.128;5.434;2022-08-25T08:56:43;3.83;;;1.80;;
71715;SDS011;59568;52.128;5.434;2022-08-25T08:59:18;5.80;;;2.10;;
71715;SDS011;59568;52.128;5.434;2022-08-25T09:01:59;4.18;;;1.85;;
71715;SDS011;59568;52.128;5.434;2022-08-25T09:04:28;4.93;;;1.88;;
71715;SDS011;59568;52.128;5.434;2022-08-25T09:07:02;3.33;;;1.80;;
71715;SDS011;59568;52.128;5.434;2022-08-25T09:09:35;4.30;;;1.90;;
71715;SDS011;59568;52.128;5.434;2022-08-25T09:20:35;3.40;;;1.50;;
71715;SDS011;59568;52.128;5.434;2022-08-25T09:23:21;4.40;;;1.67;;
71715;SDS011;59568;52.128;5.434;2022-08-25T09:29:03;10.10;;;2.20;;
71715;SDS011;59568;52.128;5.434;2022-08-25T09:31:42;3.75;;;1.67;;
71715;SDS011;59568;52.128;5.434;2022-08-25T09:34:11;3.37;;;1.80;;
71715;SDS011;59568;52.128;5.434;2022-08-25T09:36:45;5.03;;;1.88;;
71715;SDS011;59568;52.128;5.434;2022-08-25T09:39:13;4.70;;;1.60;;
71715;SDS011;59568;52.128;5.434;2022-08-25T09:49:48;6.38;;;1.75;;
71715;SDS011;59568;52.128;5.434;2022-08-25T09:52:16;3.75;;;1.80;;
71715;SDS011;59568;52.128;5.434;2022-08-25T09:54:47;5.82;;;2.20;;
71715;SDS011;59568;52.128;5.434;2022-08-25T10:00:08;2.87;;;1.60;;
71715;SDS011;59568;52.128;5.434;2022-08-25T10:02:39;5.43;;;1.80;;
71715;SDS011;59568;52.128;5.434;2022-08-25T10:05:22;3.78;;;1.58;;
71715;SDS011;59568;52.128;5.434;2022-08-25T10:07:53;3.50;;;1.67;;
71715;SDS011;59568;52.128;5.434;2022-08-25T10:10:26;3.60;;;1.35;;
71715;SDS011;59568;52.128;5.434;2022-08-25T10:12:58;5.07;;;1.47;;
71715;SDS011;59568;52.128;5.434;2022-08-25T10:15:31;9.18;;;1.80;;
71715;SDS011;59568;52.128;5.434;2022-08-25T10:23:40;6.82;;;1.67;;
71715;SDS011;59568;52.128;5.434;2022-08-25T10:26:19;4.83;;;1.60;;
71715;SDS011;59568;52.128;5.434;2022-08-25T10:31:33;5.13;;;2.03;;
71715;SDS011;59568;52.128;5.434;2022-08-25T10:34:10;3.88;;;1.30;;
71715;SDS011;59568;52.128;5.434;2022-08-25T10:36:53;4.95;;;1.73;;
71715;SDS011;59568;52.128;5.434;2022-08-25T10:39:33;5.03;;;1.30;;
71715;SDS011;59568;52.128;5.434;2022-08-25T10:42:25;6.20;;;2.03;;
71715;SDS011;59568;52.128;5.434;2022-08-25T10:45:21;4.15;;;1.60;;
71715;SDS011;59568;52.128;5.434;2022-08-25T10:50:49;3.28;;;1.52;;
71715;SDS011;59568;52.128;5.434;2022-08-25T10:53:55;3.20;;;1.70;;
71715;SDS011;59568;52.128;5.434;2022-08-25T10:56:40;4.18;;;1.30;;
71715;SDS011;59568;52.128;5.434;2022-08-25T10:59:15;2.53;;;1.20;;
71715;SDS011;59568;52.128;5.434;2022-08-25T11:07:33;5.85;;;1.50;;
71715;SDS011;59568;52.128;5.434;2022-08-25T11:10:07;4.53;;;1.50;;
71715;SDS011;59568;52.128;5.434;2022-08-25T11:15:34;4.45;;;1.30;;
71715;SDS011;59568;52.128;5.434;2022-08-25T11:18:26;3.30;;;1.40;;
71715;SDS011;59568;52.128;5.434;2022-08-25T11:23:39;5.75;;;1.50;;
71715;SDS011;59568;52.128;5.434;2022-08-25T11:26:12;3.60;;;1.20;;
71715;SDS011;59568;52.128;5.434;2022-08-25T11:31:21;4.90;;;1.60;;
71715;SDS011;59568;52.128;5.434;2022-08-25T11:33:49;2.47;;;1.40;;
71715;SDS011;59568;52.128;5.434;2022-08-25T11:39:14;4.13;;;1.10;;
71715;SDS011;59568;52.128;5.434;2022-08-25T11:42:00;4.20;;;1.27;;
71715;SDS011;59568;52.128;5.434;2022-08-25T11:53:17;3.50;;;1.42;;
71715;SDS011;59568;52.128;5.434;2022-08-25T11:55:56;1.75;;;0.80;;
71715;SDS011;59568;52.128;5.434;2022-08-25T12:04:13;2.92;;;1.13;;
71715;SDS011;59568;52.128;5.434;2022-08-25T12:15:22;3.38;;;1.17;;
71715;SDS011;59568;52.128;5.434;2022-08-25T12:23:31;2.50;;;0.77;;
71715;SDS011;59568;52.128;5.434;2022-08-25T12:26:16;1.77;;;1.15;;
71715;SDS011;59568;52.128;5.434;2022-08-25T12:31:35;2.10;;;1.30;;
71715;SDS011;59568;52.128;5.434;2022-08-25T12:36:57;2.95;;;1.20;;
71715;SDS011;59568;52.128;5.434;2022-08-25T12:39:34;3.47;;;1.00;;
71715;SDS011;59568;52.128;5.434;2022-08-25T12:42:06;3.22;;;0.95;;
71715;SDS011;59568;52.128;5.434;2022-08-25T12:47:51;3.25;;;0.93;;
71715;SDS011;59568;52.128;5.434;2022-08-25T12:50:24;1.83;;;0.90;;
71715;SDS011;59568;52.128;5.434;2022-08-25T12:53:24;3.88;;;1.13;;
71715;SDS011;59568;52.128;5.434;2022-08-25T12:56:07;2.67;;;0.85;;
71715;SDS011;59568;52.128;5.434;2022-08-25T13:01:48;3.13;;;1.15;;
71715;SDS011;59568;52.128;5.434;2022-08-25T13:04:56;2.17;;;0.82;;
71715;SDS011;59568;52.128;5.434;2022-08-25T13:12:48;3.08;;;1.33;;
71715;SDS011;59568;52.128;5.434;2022-08-25T13:15:25;2.20;;;1.17;;
71715;SDS011;59568;52.128;5.434;2022-08-25T13:18:11;2.47;;;1.10;;
71715;SDS011;59568;52.128;5.434;2022-08-25T13:20:38;1.98;;;0.95;;
71715;SDS011;59568;52.128;5.434;2022-08-25T13:23:09;2.80;;;1.35;;
71715;SDS011;59568;52.128;5.434;2022-08-25T13:25:37;2.13;;;0.88;;
71715;SDS011;59568;52.128;5.434;2022-08-25T13:28:21;2.88;;;0.85;;
71715;SDS011;59568;52.128;5.434;2022-08-25T13:30:57;2.97;;;1.20;;
71715;SDS011;59568;52.128;5.434;2022-08-25T13:33:25;3.00;;;1.10;;
71715;SDS011;59568;52.128;5.434;2022-08-25T13:35:54;2.15;;;1.23;;
71715;SDS011;59568;52.128;5.434;2022-08-25T13:38:41;3.30;;;1.13;;
71715;SDS011;59568;52.128;5.434;2022-08-25T13:41:16;2.35;;;1.33;;
71715;SDS011;59568;52.128;5.434;2022-08-25T13:43:54;2.30;;;1.02;;
71715;SDS011;59568;52.128;5.434;2022-08-25T13:46:26;2.20;;;1.20;;
71715;SDS011;59568;52.128;5.434;2022-08-25T13:49:01;2.92;;;1.27;;
71715;SDS011;59568;52.128;5.434;2022-08-25T13:51:30;3.17;;;1.25;;
71715;SDS011;59568;52.128;5.434;2022-08-25T13:54:03;3.15;;;1.27;;
71715;SDS011;59568;52.128;5.434;2022-08-25T13:56:33;3.45;;;1.20;;
71715;SDS011;59568;52.128;5.434;2022-08-25T14:02:05;3.80;;;1.08;;
71715;SDS011;59568;52.128;5.434;2022-08-25T14:09:47;3.88;;;1.15;;
71715;SDS011;59568;52.128;5.434;2022-08-25T14:12:31;2.25;;;1.40;;
71715;SDS011;59568;52.128;5.434;2022-08-25T14:15:04;5.78;;;1.17;;
71715;SDS011;59568;52.128;5.434;2022-08-25T14:17:34;3.70;;;1.17;;
71715;SDS011;59568;52.128;5.434;2022-08-25T14:20:06;3.53;;;1.20;;
71715;SDS011;59568;52.128;5.434;2022-08-25T14:22:54;3.45;;;1.30;;
71715;SDS011;59568;52.128;5.434;2022-08-25T14:25:25;3.45;;;1.40;;
71715;SDS011;59568;52.128;5.434;2022-08-25T14:27:53;4.88;;;1.40;;
71715;SDS011;59568;52.128;5.434;2022-08-25T14:30:33;3.45;;;1.10;;
71715;SDS011;59568;52.128;5.434;2022-08-25T14:33:04;2.95;;;1.05;;
71715;SDS011;59568;52.128;5.434;2022-08-25T14:35:32;2.15;;;1.38;;
71715;SDS011;59568;52.128;5.434;2022-08-25T14:38:02;2.40;;;1.47;;
71715;SDS011;59568;52.128;5.434;2022-08-25T14:40:35;3.92;;;1.10;;
71715;SDS011;59568;52.128;5.434;2022-08-25T14:43:02;3.75;;;1.08;;
71715;SDS011;59568;52.128;5.434;2022-08-25T14:45:29;3.20;;;1.05;;
71715;SDS011;59568;52.128;5.434;2022-08-25T14:47:58;2.15;;;1.38;;
71715;SDS011;59568;52.128;5.434;2022-08-25T14:50:35;4.78;;;1.30;;
71715;SDS011;59568;52.128;5.434;2022-08-25T14:53:02;2.85;;;1.50;;
71715;SDS011;59568;52.128;5.434;2022-08-25T14:55:29;2.90;;;1.17;;
71715;SDS011;59568;52.128;5.434;2022-08-25T14:57:57;4.43;;;1.42;;
71715;SDS011;59568;52.128;5.434;2022-08-25T15:00:23;2.47;;;1.08;;
71715;SDS011;59568;52.128;5.434;2022-08-25T15:02:51;3.80;;;1.50;;
71715;SDS011;59568;52.128;5.434;2022-08-25T15:05:20;2.67;;;1.27;;
71715;SDS011;59568;52.128;5.434;2022-08-25T15:07:53;2.95;;;1.63;;
71715;SDS011;59568;52.128;5.434;2022-08-25T15:10:40;5.40;;;1.45;;
71715;SDS011;59568;52.128;5.434;2022-08-25T15:13:08;3.03;;;1.38;;
71715;SDS011;59568;52.128;5.434;2022-08-25T15:15:36;3.13;;;1.30;;
71715;SDS011;59568;52.128;5.434;2022-08-25T15:18:18;2.78;;;1.52;;
71715;SDS011;59568;52.128;5.434;2022-08-25T15:20:45;2.95;;;1.45;;
71715;SDS011;59568;52.128;5.434;2022-08-25T15:23:15;3.83;;;1.52;;
71715;SDS011;59568;52.128;5.434;2022-08-25T15:25:45;2.58;;;1.10;;
71715;SDS011;59568;52.128;5.434;2022-08-25T15:28:18;3.25;;;1.25;;
71715;SDS011;59568;52.128;5.434;2022-08-25T15:30:47;2.35;;;1.27;;
71715;SDS011;59568;52.128;5.434;2022-08-25T15:33:14;2.97;;;1.90;;
71715;SDS011;59568;52.128;5.434;2022-08-25T15:35:40;2.63;;;1.48;;
71715;SDS011;59568;52.128;5.434;2022-08-25T15:38:08;1.42;;;1.08;;
71715;SDS011;59568;52.128;5.434;2022-08-25T15:40:35;2.47;;;1.50;;
71715;SDS011;59568;52.128;5.434;2022-08-25T15:43:04;2.30;;;1.85;;
71715;SDS011;59568;52.128;5.434;2022-08-25T15:45:32;4.35;;;1.50;;
71715;SDS011;59568;52.128;5.434;2022-08-25T15:48:01;3.03;;;1.63;;
71715;SDS011;59568;52.128;5.434;2022-08-25T15:50:28;4.57;;;1.63;;
71715;SDS011;59568;52.128;5.434;2022-08-25T15:52:55;3.38;;;1.50;;
71715;SDS011;59568;52.128;5.434;2022-08-25T15:55:21;4.88;;;1.58;;
71715;SDS011;59568;52.128;5.434;2022-08-25T15:57:48;3.78;;;1.50;;
71715;SDS011;59568;52.128;5.434;2022-08-25T16:00:16;2.00;;;1.60;;
71715;SDS011;59568;52.128;5.434;2022-08-25T16:02:43;2.83;;;1.90;;
71715;SDS011;59568;52.128;5.434;2022-08-25T16:05:10;2.70;;;1.75;;
71715;SDS011;59568;52.128;5.434;2022-08-25T16:07:38;5.72;;;2.22;;
71715;SDS011;59568;52.128;5.434;2022-08-25T16:10:05;4.60;;;1.52;;
71715;SDS011;59568;52.128;5.434;2022-08-25T16:12:32;3.97;;;1.80;;
71715;SDS011;59568;52.128;5.434;2022-08-25T16:14:58;4.00;;;1.42;;
71715;SDS011;59568;52.128;5.434;2022-08-25T16:17:25;2.50;;;1.65;;
71715;SDS011;59568;52.128;5.434;2022-08-25T16:19:51;2.78;;;1.95;;
71715;SDS011;59568;52.128;5.434;2022-08-25T16:22:18;3.78;;;1.83;;
71715;SDS011;59568;52.128;5.434;2022-08-25T16:24:45;4.07;;;2.03;;
71715;SDS011;59568;52.128;5.434;2022-08-25T16:27:11;3.78;;;1.83;;
71715;SDS011;59568;52.128;5.434;2022-08-25T16:29:40;2.88;;;1.58;;
71715;SDS011;59568;52.128;5.434;2022-08-25T16:32:07;4.10;;;1.63;;
71715;SDS011;59568;52.128;5.434;2022-08-25T16:34:35;2.92;;;2.15;;
71715;SDS011;59568;52.128;5.434;2022-08-25T16:37:04;3.30;;;1.70;;
71715;SDS011;59568;52.128;5.434;2022-08-25T16:39:31;4.00;;;2.03;;
71715;SDS011;59568;52.128;5.434;2022-08-25T16:41:58;4.07;;;2.30;;
71715;SDS011;59568;52.128;5.434;2022-08-25T16:44:24;3.05;;;1.58;;
71715;SDS011;59568;52.128;5.434;2022-08-25T16:46:51;3.65;;;2.20;;
71715;SDS011;59568;52.128;5.434;2022-08-25T16:49:19;2.45;;;1.70;;
71715;SDS011;59568;52.128;5.434;2022-08-25T16:51:49;2.38;;;1.58;;
71715;SDS011;59568;52.128;5.434;2022-08-25T16:54:22;3.28;;;1.90;;
71715;SDS011;59568;52.128;5.434;2022-08-25T16:57:07;2.78;;;1.73;;
71715;SDS011;59568;52.128;5.434;2022-08-25T16:59:34;2.03;;;1.30;;
71715;SDS011;59568;52.128;5.434;2022-08-25T17:02:00;2.25;;;1.60;;
71715;SDS011;59568;52.128;5.434;2022-08-25T17:04:27;2.22;;;2.00;;
71715;SDS011;59568;52.128;5.434;2022-08-25T17:06:57;3.85;;;1.85;;